Time;durP1;ratioP1;P1;durP2;ratioP2;P2;SDS_P1;SDS_P2;PMS_P1;PMS_P2;Temp;Humidity;BMP_temperature;BMP_pressure;BME280_temperature;BME280_humidity;BME280_pressure;Samples;Min_cycle;Max_cycle;Signal;HPM_P1;HPM_P2
2022/05/12 00:01:08;;;;;;;6.38;2.30;;;17.70;99.90;;;;;;4156363;28;20026;-72
2022/05/12 00:03:09;;;;;;;8.32;2.08;;;17.40;99.90;;;;;;4156566;28;20038;-71
2022/05/12 00:05:11;;;;;;;7.00;2.10;;;17.40;99.90;;;;;;4158120;28;20041;-72
2022/05/12 00:07:11;;;;;;;4.15;1.80;;;17.40;99.90;;;;;;4155949;28;20048;-70
2022/05/12 00:09:12;;;;;;;10.77;2.03;;;17.40;99.90;;;;;;4158451;28;20120;-70
2022/05/12 00:11:12;;;;;;;3.78;1.73;;;17.30;99.90;;;;;;4154195;28;20037;-70
2022/05/12 00:13:13;;;;;;;9.18;2.50;;;17.40;99.90;;;;;;4158000;28;20447;-70
2022/05/12 00:15:19;;;;;;;6.25;1.75;;;17.20;99.90;;;;;;4156634;28;20033;-70
2022/05/12 00:17:19;;;;;;;7.65;2.08;;;17.20;99.90;;;;;;4157504;28;20400;-70
2022/05/12 00:19:21;;;;;;;4.85;1.92;;;17.10;99.90;;;;;;4157526;28;20045;-70
2022/05/12 00:21:21;;;;;;;5.03;2.03;;;16.90;99.90;;;;;;4158563;28;20037;-70
2022/05/12 00:23:26;;;;;;;5.30;2.42;;;16.80;99.90;;;;;;4152499;28;20041;-70
2022/05/12 00:25:27;;;;;;;6.90;1.80;;;16.70;99.90;;;;;;4159819;28;20040;-70
2022/05/12 00:27:27;;;;;;;4.47;1.85;;;16.80;99.90;;;;;;4159080;28;20030;-69
2022/05/12 00:29:28;;;;;;;7.93;2.03;;;16.80;99.90;;;;;;4155894;28;21103;-69
2022/05/12 00:31:29;;;;;;;4.90;2.20;;;16.70;99.90;;;;;;4157362;28;20047;-69
2022/05/12 00:33:30;;;;;;;4.07;1.88;;;16.70;99.90;;;;;;4153697;28;20037;-69
2022/05/12 00:35:31;;;;;;;4.82;2.10;;;16.70;99.90;;;;;;4155602;28;20041;-69
2022/05/12 00:37:32;;;;;;;6.95;2.33;;;16.60;99.90;;;;;;4159295;28;20037;-70
2022/05/12 00:39:32;;;;;;;8.48;2.22;;;16.60;99.90;;;;;;4150190;28;20044;-69
2022/05/12 00:41:36;;;;;;;3.67;1.95;;;16.40;99.90;;;;;;4144512;28;20501;-69
2022/05/12 00:43:46;;;;;;;6.13;1.67;;;16.40;99.90;;;;;;4141801;28;20033;-69
2022/05/12 00:45:49;;;;;;;4.53;2.10;;;16.40;99.90;;;;;;4156684;28;20059;-69
2022/05/12 00:47:50;;;;;;;4.95;2.17;;;16.40;99.90;;;;;;4152157;28;20535;-69
2022/05/12 00:49:52;;;;;;;7.10;2.60;;;16.40;99.90;;;;;;4158023;28;20041;-69
2022/05/12 00:52:02;;;;;;;5.90;1.88;;;16.30;99.90;;;;;;4158877;28;20088;-69
2022/05/12 00:54:08;;;;;;;7.82;2.42;;;16.30;99.90;;;;;;4157476;28;20053;-69
2022/05/12 00:56:14;;;;;;;5.15;2.10;;;16.20;99.90;;;;;;4155984;28;20117;-69
2022/05/12 00:58:19;;;;;;;7.38;2.45;;;16.10;99.90;;;;;;4152206;28;20053;-69
2022/05/12 01:00:21;;;;;;;5.28;2.13;;;15.90;99.90;;;;;;4152906;28;20480;-69
2022/05/12 01:02:23;;;;;;;5.20;2.38;;;15.80;99.90;;;;;;4149862;28;20440;-69
2022/05/12 01:04:24;;;;;;;6.20;2.33;;;15.90;99.90;;;;;;4151291;28;20042;-69
2022/05/12 01:06:25;;;;;;;7.68;2.50;;;15.70;99.90;;;;;;4152254;28;20455;-69
2022/05/12 01:08:25;;;;;;;7.78;2.38;;;15.70;99.90;;;;;;4156364;28;20124;-69
2022/05/12 01:10:29;;;;;;;7.30;2.42;;;15.80;99.90;;;;;;4153836;28;20058;-69
2022/05/12 01:12:30;;;;;;;5.85;2.38;;;15.70;99.90;;;;;;4153091;28;20025;-69
2022/05/12 01:14:30;;;;;;;3.47;2.30;;;15.70;99.90;;;;;;4156378;28;20107;-69
2022/05/12 01:16:45;;;;;;;5.05;2.60;;;15.70;99.90;;;;;;4154468;28;20045;-69
2022/05/12 01:18:46;;;;;;;6.22;2.90;;;15.70;99.90;;;;;;4157819;28;20034;-69
2022/05/12 01:20:47;;;;;;;6.22;2.45;;;15.70;99.90;;;;;;4155379;28;20433;-69
2022/05/12 01:22:51;;;;;;;7.45;2.45;;;15.70;99.90;;;;;;4161697;28;20038;-69
2022/05/12 01:24:52;;;;;;;4.75;2.08;;;15.80;99.90;;;;;;4160385;28;20021;-69
2022/05/12 01:26:52;;;;;;;5.43;2.33;;;15.70;99.90;;;;;;4156915;28;20040;-69
2022/05/12 01:28:53;;;;;;;5.30;2.30;;;15.70;99.90;;;;;;4158960;28;20710;-69
2022/05/12 01:30:55;;;;;;;4.78;2.00;;;15.70;99.90;;;;;;4160321;28;20033;-69
2022/05/12 01:32:55;;;;;;;6.65;2.63;;;15.70;99.90;;;;;;4151693;28;20062;-69
2022/05/12 01:34:57;;;;;;;7.38;2.53;;;15.80;99.90;;;;;;4154060;28;20397;-69
2022/05/12 01:36:57;;;;;;;4.60;1.95;;;15.70;99.90;;;;;;4153988;28;20386;-69
2022/05/12 01:38:58;;;;;;;7.85;2.25;;;15.80;99.90;;;;;;4159972;28;20125;-69
2022/05/12 01:40:59;;;;;;;7.50;2.08;;;15.80;99.90;;;;;;4150980;28;20045;-69
2022/05/12 01:43:00;;;;;;;4.78;1.80;;;15.80;99.90;;;;;;4152393;28;20066;-69
2022/05/12 01:45:01;;;;;;;5.05;2.40;;;15.70;99.90;;;;;;4156967;28;20393;-69
2022/05/12 01:47:02;;;;;;;5.05;2.22;;;15.80;99.90;;;;;;4159815;28;20045;-69
2022/05/12 01:49:02;;;;;;;3.90;1.92;;;15.70;99.90;;;;;;4158517;28;20053;-69
2022/05/12 01:51:04;;;;;;;4.15;2.20;;;15.70;99.90;;;;;;4155046;28;20477;-69
2022/05/12 01:53:05;;;;;;;5.10;1.98;;;15.70;99.90;;;;;;4159614;28;20069;-69
2022/05/12 01:55:06;;;;;;;8.40;2.42;;;15.80;99.90;;;;;;4157199;28;20481;-70
2022/05/12 01:57:07;;;;;;;9.90;2.60;;;15.80;99.90;;;;;;4157886;28;20034;-69
2022/05/12 01:59:07;;;;;;;5.43;2.17;;;15.70;99.90;;;;;;4158637;28;20099;-69
2022/05/12 02:01:08;;;;;;;5.38;2.22;;;15.60;99.90;;;;;;4159032;28;20033;-69
2022/05/12 02:03:09;;;;;;;7.38;2.75;;;15.60;99.90;;;;;;4159458;28;20038;-69
2022/05/12 02:05:11;;;;;;;3.85;2.00;;;15.60;99.90;;;;;;4159465;28;20425;-69
2022/05/12 02:07:12;;;;;;;6.88;2.05;;;15.50;99.90;;;;;;4155022;28;20183;-71
2022/05/12 02:09:13;;;;;;;4.15;1.88;;;15.60;99.90;;;;;;4159136;28;20029;-69
2022/05/12 02:11:13;;;;;;;2.55;1.60;;;15.60;99.90;;;;;;4157206;28;20101;-69
2022/05/12 02:13:17;;;;;;;3.70;1.60;;;15.60;99.90;;;;;;4156818;28;20037;-70
2022/05/12 02:15:18;;;;;;;7.07;2.20;;;15.60;99.90;;;;;;4153459;28;20052;-69
2022/05/12 02:17:19;;;;;;;4.60;2.08;;;15.70;99.90;;;;;;4153617;28;20042;-69
2022/05/12 02:19:19;;;;;;;4.03;1.83;;;15.70;99.90;;;;;;4153589;28;20500;-69
2022/05/12 02:21:20;;;;;;;4.90;1.58;;;15.80;99.90;;;;;;4149709;28;20132;-69
2022/05/12 02:23:21;;;;;;;3.42;1.75;;;15.80;99.90;;;;;;4156590;28;20057;-69
2022/05/12 02:25:21;;;;;;;4.65;1.60;;;15.80;99.90;;;;;;4159090;28;20090;-69
2022/05/12 02:27:22;;;;;;;6.38;2.28;;;15.90;99.90;;;;;;4153568;28;20033;-69
2022/05/12 02:29:23;;;;;;;5.40;1.48;;;15.90;99.90;;;;;;4155777;28;20132;-69
2022/05/12 02:31:24;;;;;;;4.57;1.50;;;16.00;99.90;;;;;;4152349;28;20030;-69
2022/05/12 02:33:25;;;;;;;5.15;1.55;;;16.00;99.90;;;;;;4157691;28;20041;-69
2022/05/12 02:35:27;;;;;;;6.05;2.00;;;16.00;99.90;;;;;;4159022;28;20139;-69
2022/05/12 02:37:28;;;;;;;5.35;1.50;;;16.00;99.90;;;;;;4152627;28;20052;-69
2022/05/12 02:39:31;;;;;;;5.70;1.67;;;16.00;99.90;;;;;;4156504;28;20450;-69
2022/05/12 02:41:32;;;;;;;4.47;1.63;;;16.00;99.90;;;;;;4151139;28;20485;-69
2022/05/12 02:43:32;;;;;;;3.35;1.65;;;16.00;99.90;;;;;;4155181;28;20042;-69
2022/05/12 02:45:33;;;;;;;5.22;2.10;;;16.10;99.90;;;;;;4155964;28;20030;-69
2022/05/12 02:47:33;;;;;;;5.25;1.80;;;16.10;99.90;;;;;;4154811;28;20492;-69
2022/05/12 02:49:35;;;;;;;5.22;1.75;;;16.00;99.90;;;;;;4155046;28;20057;-69
2022/05/12 02:51:35;;;;;;;3.47;1.40;;;16.00;99.90;;;;;;4157056;28;20029;-69
2022/05/12 02:53:37;;;;;;;2.17;1.42;;;16.10;99.90;;;;;;4155781;28;20164;-69
2022/05/12 02:55:38;;;;;;;3.08;1.30;;;16.10;99.90;;;;;;4157700;28;20045;-69
2022/05/12 02:57:39;;;;;;;2.92;1.52;;;16.10;99.90;;;;;;4154723;28;20026;-69
2022/05/12 02:59:40;;;;;;;4.13;1.58;;;16.10;99.90;;;;;;4155722;28;20109;-69
2022/05/12 03:01:40;;;;;;;3.38;1.20;;;16.10;99.90;;;;;;4156833;28;20033;-69
2022/05/12 03:03:41;;;;;;;4.57;1.70;;;16.10;99.90;;;;;;4155291;28;20041;-70
2022/05/12 03:05:42;;;;;;;3.63;1.65;;;16.10;99.90;;;;;;4155829;28;20391;-69
2022/05/12 03:07:42;;;;;;;3.85;1.67;;;16.10;99.90;;;;;;4158041;28;20306;-71
2022/05/12 03:09:43;;;;;;;4.07;1.58;;;16.10;99.90;;;;;;4150456;28;20029;-69
2022/05/12 03:11:44;;;;;;;3.90;1.50;;;16.10;99.90;;;;;;4150529;28;20500;-69
2022/05/12 03:13:45;;;;;;;4.72;1.70;;;16.10;99.90;;;;;;4151354;28;20026;-69
2022/05/12 03:15:46;;;;;;;4.63;1.58;;;16.10;99.90;;;;;;4157833;28;20378;-69
2022/05/12 03:17:47;;;;;;;11.02;1.60;;;16.10;99.90;;;;;;4154199;28;20029;-69
2022/05/12 03:19:48;;;;;;;3.70;1.95;;;16.00;99.90;;;;;;4155502;28;20041;-69
2022/05/12 03:21:49;;;;;;;4.07;1.55;;;16.00;99.90;;;;;;4153797;28;20026;-69
2022/05/12 03:23:50;;;;;;;3.05;1.83;;;16.00;99.90;;;;;;4155332;28;20040;-69
2022/05/12 03:25:52;;;;;;;2.50;1.33;;;16.00;99.90;;;;;;4155400;28;20507;-69
2022/05/12 03:27:53;;;;;;;2.78;1.38;;;16.00;99.90;;;;;;4156297;28;20405;-69
2022/05/12 03:29:53;;;;;;;1.83;1.40;;;16.00;99.90;;;;;;4152592;28;20040;-69
2022/05/12 03:31:54;;;;;;;3.03;1.55;;;16.00;99.90;;;;;;4154687;28;20044;-68
2022/05/12 03:33:54;;;;;;;3.25;1.55;;;15.90;99.90;;;;;;4149769;28;20064;-69
2022/05/12 03:35:56;;;;;;;4.00;1.70;;;15.90;99.90;;;;;;4155545;28;20416;-69
2022/05/12 03:37:57;;;;;;;6.00;2.00;;;15.90;99.90;;;;;;4150241;28;20436;-69
2022/05/12 03:39:58;;;;;;;4.90;2.50;;;15.80;99.90;;;;;;4157371;28;20026;-69
2022/05/12 03:41:58;;;;;;;5.13;1.95;;;15.80;99.90;;;;;;4151309;28;20058;-69
2022/05/12 03:46:18;;;;;;;4.43;1.88;;;15.80;99.90;;;;;;4157181;28;20029;-69
2022/05/12 03:48:18;;;;;;;4.50;2.35;;;15.80;99.90;;;;;;4153456;28;20040;-69
2022/05/12 03:50:23;;;;;;;4.75;1.98;;;15.80;99.90;;;;;;4157023;28;20045;-69
2022/05/12 03:52:24;;;;;;;3.10;1.98;;;15.80;99.90;;;;;;4152917;28;20046;-69
2022/05/12 03:54:24;;;;;;;3.17;1.90;;;15.80;99.90;;;;;;4153967;28;20050;-69
2022/05/12 03:56:26;;;;;;;3.45;1.77;;;15.80;99.90;;;;;;4155877;28;20030;-69
2022/05/12 03:58:27;;;;;;;3.35;1.92;;;15.80;99.90;;;;;;4151833;28;20058;-69
2022/05/12 04:00:29;;;;;;;6.32;2.15;;;15.80;99.90;;;;;;4151140;28;20042;-69
2022/05/12 04:02:29;;;;;;;3.10;2.08;;;15.80;99.90;;;;;;4157705;28;20870;-69
2022/05/12 04:04:30;;;;;;;4.43;1.92;;;15.70;99.90;;;;;;4151972;28;20033;-69
2022/05/12 04:06:31;;;;;;;5.13;2.25;;;15.80;99.90;;;;;;4152026;28;20034;-69
2022/05/12 04:08:33;;;;;;;2.65;1.95;;;15.70;99.90;;;;;;4154049;28;20126;-69
2022/05/12 04:10:34;;;;;;;5.33;2.50;;;15.70;99.90;;;;;;4155814;28;20045;-69
2022/05/12 04:12:35;;;;;;;5.97;2.65;;;15.70;99.90;;;;;;4154132;28;20037;-69
2022/05/12 04:14:37;;;;;;;4.50;2.13;;;15.70;99.90;;;;;;4148454;28;20038;-68
2022/05/12 04:16:38;;;;;;;5.07;2.75;;;15.80;99.90;;;;;;4150541;28;20029;-68
2022/05/12 04:18:38;;;;;;;3.35;1.98;;;15.80;99.90;;;;;;4156131;28;20040;-69
2022/05/12 04:20:39;;;;;;;4.80;2.20;;;15.80;99.90;;;;;;4154550;28;20026;-69
2022/05/12 04:22:42;;;;;;;3.33;2.20;;;15.70;99.90;;;;;;4155249;28;20485;-69
2022/05/12 04:24:43;;;;;;;6.60;2.38;;;15.70;99.90;;;;;;4154032;28;20069;-72
2022/05/12 04:26:44;;;;;;;5.28;2.20;;;15.70;99.90;;;;;;4152256;28;20037;-69
2022/05/12 04:28:45;;;;;;;3.83;2.03;;;15.70;99.90;;;;;;4155396;28;20041;-69
2022/05/12 04:30:46;;;;;;;3.72;2.25;;;15.70;99.90;;;;;;4155727;28;20034;-69
2022/05/12 04:32:46;;;;;;;7.53;2.40;;;15.60;99.90;;;;;;4154527;28;20120;-70
2022/05/12 04:37:06;;;;;;;4.47;2.08;;;15.50;99.90;;;;;;4155831;28;20034;-69
2022/05/12 04:39:08;;;;;;;5.38;2.30;;;15.40;99.90;;;;;;4157044;28;20483;-69
2022/05/12 04:41:09;;;;;;;4.97;2.20;;;15.40;99.90;;;;;;4152474;28;20064;-70
2022/05/12 04:43:09;;;;;;;4.53;2.20;;;15.40;99.90;;;;;;4157399;28;20046;-70
2022/05/12 04:45:11;;;;;;;3.30;1.90;;;15.30;99.90;;;;;;4151068;28;20041;-71
2022/05/12 04:47:12;;;;;;;6.72;2.15;;;15.30;99.90;;;;;;4155234;28;20029;-69
2022/05/12 04:49:16;;;;;;;3.95;2.28;;;15.30;99.90;;;;;;4150897;28;20060;-72
2022/05/12 04:51:16;;;;;;;6.63;2.25;;;15.30;99.90;;;;;;4153663;28;20097;-70
2022/05/12 04:53:17;;;;;;;4.68;2.55;;;15.30;99.90;;;;;;4161287;28;20072;-70
2022/05/12 04:55:18;;;;;;;5.43;2.13;;;15.30;99.90;;;;;;4155950;28;20511;-70
2022/05/12 04:57:19;;;;;;;4.53;2.47;;;15.30;99.90;;;;;;4158965;28;20064;-70
2022/05/12 04:59:20;;;;;;;4.90;1.88;;;15.40;99.90;;;;;;4158808;28;20447;-70
2022/05/12 05:01:20;;;;;;;6.65;2.38;;;15.40;99.90;;;;;;4161574;28;20045;-70
2022/05/12 05:03:21;;;;;;;5.10;1.65;;;15.40;99.90;;;;;;4156023;28;20124;-70
2022/05/12 05:05:22;;;;;;;3.70;1.98;;;15.40;99.90;;;;;;4156903;28;20037;-70
2022/05/12 05:07:24;;;;;;;3.30;2.00;;;15.40;99.90;;;;;;4153354;28;20484;-70
2022/05/12 05:09:25;;;;;;;3.58;2.13;;;15.50;99.90;;;;;;4154111;28;20404;-70
2022/05/12 05:11:26;;;;;;;6.10;2.47;;;15.40;99.90;;;;;;4158378;28;20046;-70
2022/05/12 05:13:26;;;;;;;5.90;2.80;;;15.40;99.90;;;;;;4153885;28;20029;-70
2022/05/12 05:15:27;;;;;;;6.75;2.38;;;15.40;99.90;;;;;;4158077;28;20036;-70
2022/05/12 05:17:28;;;;;;;7.25;2.50;;;15.40;99.90;;;;;;4154021;28;20061;-70
2022/05/12 05:19:29;;;;;;;8.70;2.47;;;15.40;99.90;;;;;;4155064;28;20065;-70
2022/05/12 05:21:29;;;;;;;7.18;2.20;;;15.40;99.90;;;;;;4151257;28;20045;-70
2022/05/12 05:23:30;;;;;;;8.05;2.35;;;15.40;99.90;;;;;;4158962;28;20036;-69
2022/05/12 05:25:31;;;;;;;4.30;2.42;;;15.50;99.90;;;;;;4159359;28;20094;-69
2022/05/12 05:27:31;;;;;;;4.70;2.47;;;15.50;99.90;;;;;;4160513;28;20045;-69
2022/05/12 05:29:33;;;;;;;5.45;2.33;;;15.50;99.90;;;;;;4156706;28;20119;-69
2022/05/12 05:31:39;;;;;;;7.35;2.58;;;15.60;99.90;;;;;;4160024;28;20091;-69
2022/05/12 05:33:40;;;;;;;5.28;2.20;;;15.60;99.90;;;;;;4161686;28;20068;-70
2022/05/12 05:35:40;;;;;;;7.70;2.72;;;15.60;99.90;;;;;;4155083;28;20038;-69
2022/05/12 05:37:43;;;;;;;9.75;2.80;;;15.60;99.90;;;;;;4157005;28;20037;-69
2022/05/12 05:39:44;;;;;;;9.07;2.85;;;15.60;99.90;;;;;;4159659;28;20021;-70
2022/05/12 05:41:45;;;;;;;6.53;2.80;;;15.60;99.90;;;;;;4155938;28;20134;-70
2022/05/12 05:43:45;;;;;;;6.90;2.63;;;15.60;99.90;;;;;;4148344;28;20045;-69
2022/05/12 05:45:46;;;;;;;7.10;2.72;;;15.70;99.90;;;;;;4157134;28;20524;-70
2022/05/12 05:47:50;;;;;;;12.98;3.55;;;15.70;99.90;;;;;;4150575;28;20034;-70
2022/05/12 05:49:51;;;;;;;9.65;2.88;;;15.70;99.90;;;;;;4160189;28;20037;-70
2022/05/12 05:54:10;;;;;;;9.50;2.55;;;15.70;99.90;;;;;;4159947;28;20026;-70
2022/05/12 05:56:15;;;;;;;9.15;3.38;;;15.80;99.90;;;;;;4161170;28;20030;-69
2022/05/12 05:58:15;;;;;;;11.00;3.67;;;15.80;99.90;;;;;;4154469;28;20057;-69
2022/05/12 06:00:17;;;;;;;9.32;3.10;;;15.80;99.90;;;;;;4155885;28;20240;-70
2022/05/12 06:02:18;;;;;;;8.77;3.25;;;15.80;99.90;;;;;;4156349;28;20041;-69
2022/05/12 06:04:18;;;;;;;16.15;5.75;;;15.90;99.90;;;;;;4156870;28;20037;-69
2022/05/12 06:06:19;;;;;;;17.42;4.72;;;15.90;99.90;;;;;;4157923;28;20041;-70
2022/05/12 06:08:20;;;;;;;13.43;4.20;;;15.90;99.90;;;;;;4158205;28;20049;-69
2022/05/12 06:10:22;;;;;;;7.88;3.80;;;15.90;99.90;;;;;;4157031;28;20069;-69
2022/05/12 06:12:23;;;;;;;6.97;3.33;;;16.00;99.90;;;;;;4158714;28;20149;-69
2022/05/12 06:14:24;;;;;;;11.30;4.82;;;16.30;99.90;;;;;;4159946;28;20057;-69
2022/05/12 06:16:25;;;;;;;16.92;5.35;;;16.50;99.90;;;;;;4156506;28;20061;-69
2022/05/12 06:18:26;;;;;;;13.05;4.60;;;16.70;99.90;;;;;;4157500;28;20512;-69
2022/05/12 06:20:27;;;;;;;10.32;4.88;;;17.00;99.90;;;;;;4158492;28;20040;-69
2022/05/12 06:22:28;;;;;;;12.18;5.03;;;17.20;99.90;;;;;;4158278;28;20033;-69
2022/05/12 06:24:28;;;;;;;11.00;4.97;;;17.50;99.90;;;;;;4156675;28;20392;-69
2022/05/12 06:26:29;;;;;;;9.05;4.53;;;17.60;99.90;;;;;;4155590;28;20103;-69
2022/05/12 06:28:30;;;;;;;10.77;4.22;;;17.70;99.90;;;;;;4156425;28;20045;-69
2022/05/12 06:30:31;;;;;;;11.50;4.82;;;18.10;99.90;;;;;;4157174;28;20083;-69
2022/05/12 06:32:31;;;;;;;15.50;5.72;;;18.50;99.90;;;;;;4157315;28;20034;-69
2022/05/12 06:34:32;;;;;;;13.80;5.35;;;18.70;99.90;;;;;;4156030;28;20033;-69
2022/05/12 06:36:32;;;;;;;10.50;4.88;;;18.70;99.90;;;;;;4156420;28;20072;-69
2022/05/12 06:38:34;;;;;;;9.93;4.70;;;18.80;99.90;;;;;;4154304;28;20087;-69
2022/05/12 06:40:35;;;;;;;10.07;4.95;;;19.10;99.90;;;;;;4156208;28;20034;-69
2022/05/12 06:42:36;;;;;;;11.98;6.05;;;19.30;99.90;;;;;;4151946;28;20127;-70
2022/05/12 06:44:36;;;;;;;11.30;5.57;;;19.50;99.90;;;;;;4153758;28;20084;-70
2022/05/12 06:46:39;;;;;;;15.07;6.43;;;19.40;99.90;;;;;;4156682;28;20037;-69
2022/05/12 06:48:40;;;;;;;17.90;6.70;;;19.40;99.90;;;;;;4152873;28;20123;-69
2022/05/12 06:50:41;;;;;;;12.18;5.57;;;19.30;99.90;;;;;;4156842;28;20435;-69
2022/05/12 06:52:43;;;;;;;14.70;6.05;;;19.30;99.90;;;;;;4153677;28;20489;-69
2022/05/12 06:54:44;;;;;;;12.45;6.00;;;19.40;99.90;;;;;;4154162;28;20038;-69
2022/05/12 06:56:45;;;;;;;10.75;5.47;;;19.30;99.90;;;;;;4155899;28;20045;-70
2022/05/12 06:58:46;;;;;;;11.90;5.30;;;19.20;99.90;;;;;;4157315;28;20223;-70
2022/05/12 07:00:47;;;;;;;9.43;5.03;;;19.20;99.90;;;;;;4152996;28;20047;-69
2022/05/12 07:02:48;;;;;;;11.93;5.55;;;19.40;99.90;;;;;;4157380;28;20052;-69
2022/05/12 07:04:52;;;;;;;11.77;6.45;;;19.50;99.90;;;;;;4156543;28;20492;-70
2022/05/12 07:06:52;;;;;;;14.13;6.18;;;19.60;99.90;;;;;;4152046;28;20572;-69
2022/05/12 07:08:53;;;;;;;11.18;6.07;;;19.60;99.90;;;;;;4156085;28;20042;-70
2022/05/12 07:10:54;;;;;;;8.77;4.82;;;19.50;99.90;;;;;;4155295;28;20069;-70
2022/05/12 07:12:54;;;;;;;10.60;5.82;;;19.50;99.90;;;;;;4156732;28;20438;-69
2022/05/12 07:14:56;;;;;;;11.18;5.60;;;19.60;99.90;;;;;;4157599;28;20128;-69
2022/05/12 07:16:56;;;;;;;11.73;5.82;;;19.60;99.90;;;;;;4155103;28;20048;-70
2022/05/12 07:18:57;;;;;;;14.80;6.32;;;19.50;99.90;;;;;;4169917;28;20132;-70
2022/05/12 07:27:56;;;;;;;8.35;4.78;;;19.30;99.90;;;;;;4157034;28;20083;-69
2022/05/12 07:29:56;;;;;;;12.38;5.35;;;19.30;99.90;;;;;;4155910;28;20041;-69
2022/05/12 07:31:57;;;;;;;10.90;5.88;;;19.40;99.90;;;;;;4154100;28;20515;-68
2022/05/12 07:33:58;;;;;;;10.02;5.22;;;19.40;99.90;;;;;;4156536;28;20107;-69
2022/05/12 07:36:00;;;;;;;13.73;5.72;;;19.40;99.90;;;;;;4156399;28;20041;-69
2022/05/12 07:38:01;;;;;;;11.27;5.70;;;19.50;99.90;;;;;;4149898;28;20508;-69
2022/05/12 07:40:02;;;;;;;7.65;4.28;;;19.60;99.90;;;;;;4156343;28;20031;-69
2022/05/12 07:42:04;;;;;;;14.07;6.40;;;19.80;99.90;;;;;;4151308;28;20041;-69
2022/05/12 07:44:04;;;;;;;12.30;6.50;;;19.80;99.90;;;;;;4157820;28;23120;-69
2022/05/12 07:46:06;;;;;;;9.38;5.57;;;19.80;99.90;;;;;;4155485;28;20524;-69
2022/05/12 07:48:07;;;;;;;9.23;5.20;;;19.80;99.90;;;;;;4149736;28;20032;-69
2022/05/12 07:50:07;;;;;;;10.15;5.90;;;19.90;99.90;;;;;;4154793;28;20485;-70
2022/05/12 07:52:10;;;;;;;12.18;6.13;;;20.00;99.90;;;;;;4154144;28;20041;-69
2022/05/12 07:54:11;;;;;;;11.32;5.72;;;19.90;99.90;;;;;;4155531;28;20113;-69
2022/05/12 07:56:12;;;;;;;10.38;6.13;;;19.80;99.90;;;;;;4155568;28;20033;-69
2022/05/12 07:58:13;;;;;;;10.27;5.68;;;19.80;99.90;;;;;;4153431;28;21226;-69
2022/05/12 08:00:14;;;;;;;11.30;6.50;;;19.80;99.90;;;;;;4153137;28;20048;-70
2022/05/12 08:02:16;;;;;;;11.32;6.00;;;19.80;99.90;;;;;;4154648;28;20041;-69
2022/05/12 08:04:18;;;;;;;12.75;6.25;;;19.80;99.90;;;;;;4154151;28;20044;-70
2022/05/12 08:06:20;;;;;;;10.82;5.68;;;19.80;99.90;;;;;;4154104;28;20056;-70
2022/05/12 08:08:21;;;;;;;9.85;5.50;;;19.90;99.90;;;;;;4154100;28;20068;-69
2022/05/12 08:10:22;;;;;;;14.75;7.20;;;19.90;99.90;;;;;;4154554;28;20045;-69
2022/05/12 08:12:24;;;;;;;10.13;5.97;;;19.90;99.90;;;;;;4154984;28;20068;-69
2022/05/12 08:14:24;;;;;;;10.20;6.25;;;20.00;99.90;;;;;;4154568;28;20685;-69
2022/05/12 08:16:25;;;;;;;11.65;6.80;;;19.90;99.90;;;;;;4154750;28;20056;-69
2022/05/12 08:18:27;;;;;;;13.20;7.00;;;19.90;99.90;;;;;;4153727;28;20052;-69
2022/05/12 08:20:28;;;;;;;11.02;5.70;;;19.80;99.90;;;;;;4153886;28;20049;-69
2022/05/12 08:22:28;;;;;;;10.77;6.25;;;19.80;99.90;;;;;;4153794;28;20037;-69
2022/05/12 08:24:29;;;;;;;10.35;5.63;;;19.70;99.90;;;;;;4153214;28;20036;-69
2022/05/12 08:26:29;;;;;;;12.18;6.63;;;19.70;99.90;;;;;;4152117;28;20034;-69
2022/05/12 08:28:30;;;;;;;9.20;6.35;;;19.60;99.90;;;;;;4152916;28;20396;-70
2022/05/12 08:30:31;;;;;;;10.63;6.57;;;19.60;99.80;;;;;;4155919;28;20041;-69
2022/05/12 08:32:33;;;;;;;11.43;7.10;;;19.60;99.50;;;;;;4149057;28;20504;-69
2022/05/12 08:34:33;;;;;;;13.07;6.70;;;19.50;99.30;;;;;;4151943;28;20026;-69
2022/05/12 08:36:34;;;;;;;8.75;5.70;;;19.50;99.90;;;;;;4147982;28;20128;-69
2022/05/12 08:38:40;;;;;;;12.80;7.70;;;19.50;99.90;;;;;;4154830;28;20034;-69
2022/05/12 08:40:52;;;;;;;12.20;6.57;;;19.60;99.60;;;;;;4154590;28;20126;-69
2022/05/12 08:43:13;;;;;;;9.05;6.30;;;19.60;99.40;;;;;;4156494;28;20447;-69
2022/05/12 08:45:17;;;;;;;10.50;6.75;;;19.80;99.90;;;;;;4153313;28;20033;-69
2022/05/12 08:47:28;;;;;;;12.98;8.30;;;19.90;99.90;;;;;;4153211;28;20075;-69
2022/05/12 08:49:42;;;;;;;13.95;7.20;;;19.90;98.60;;;;;;4156305;28;20060;-68
2022/05/12 08:51:46;;;;;;;11.35;7.10;;;19.90;98.10;;;;;;4155097;28;20049;-68
2022/05/12 08:54:02;;;;;;;13.25;6.95;;;19.90;97.70;;;;;;4148576;28;20044;-69
2022/05/12 08:56:04;;;;;;;14.15;9.20;;;20.00;98.50;;;;;;4153028;28;20051;-69
2022/05/12 08:58:16;;;;;;;12.40;8.67;;;20.00;98.50;;;;;;4152544;28;20053;-69
2022/05/12 09:00:17;;;;;;;13.10;7.40;;;20.00;99.10;;;;;;4149781;28;20030;-71
2022/05/12 09:02:46;;;;;;;12.13;7.47;;;20.10;99.10;;;;;;4153658;28;20033;-70
2022/05/12 09:04:59;;;;;;;12.80;7.40;;;20.20;98.70;;;;;;4152453;28;20037;-70
2022/05/12 09:07:18;;;;;;;;;;;20.40;99.00;;;;;;4153675;28;20025;-68
2022/05/12 09:09:49;;;;;;;17.85;8.65;;;20.40;97.70;;;;;;4151717;28;19967;-69
2022/05/12 09:11:54;;;;;;;10.73;6.97;;;20.40;98.30;;;;;;4154594;28;20076;-69
2022/05/12 09:13:55;;;;;;;11.63;7.03;;;20.50;97.60;;;;;;4155119;28;20072;-69
2022/05/12 09:16:11;;;;;;;10.73;7.18;;;20.50;96.70;;;;;;4153539;28;20108;-69
2022/05/12 09:18:17;;;;;;;12.07;7.20;;;20.50;96.10;;;;;;4152322;28;20048;-69
2022/05/12 09:20:18;;;;;;;12.13;5.93;;;20.40;96.10;;;;;;4155450;28;21606;-70
2022/05/12 09:22:27;;;;;;;7.65;4.95;;;20.50;96.20;;;;;;4155020;28;20042;-69
2022/05/12 09:24:28;;;;;;;7.63;5.10;;;20.50;94.30;;;;;;4154923;28;20037;-69
2022/05/12 09:26:44;;;;;;;6.65;4.78;;;20.40;94.80;;;;;;4153213;28;20052;-69
2022/05/12 09:28:45;;;;;;;8.52;5.30;;;20.50;95.40;;;;;;4153870;28;20034;-68
2022/05/12 09:30:48;;;;;;;8.45;4.88;;;20.40;94.80;;;;;;4154846;28;20882;-68
2022/05/12 09:32:57;;;;;;;9.32;6.00;;;20.40;94.70;;;;;;4153079;28;20041;-69
2022/05/12 09:35:22;;;;;;;10.27;4.72;;;20.40;95.50;;;;;;4154060;28;20061;-69
2022/05/12 09:37:28;;;;;;;7.75;4.95;;;20.30;94.70;;;;;;4151179;28;20041;-69
2022/05/12 09:39:34;;;;;;;7.47;3.88;;;20.40;95.10;;;;;;4154641;28;20061;-69
2022/05/12 09:41:44;;;;;;;6.07;3.75;;;20.50;95.40;;;;;;4158592;28;20064;-68
2022/05/12 09:43:45;;;;;;;6.63;4.30;;;20.50;92.50;;;;;;4157963;28;20060;-68
2022/05/12 09:46:05;;;;;;;7.15;3.80;;;20.40;93.00;;;;;;4158162;28;20029;-68
2022/05/12 09:48:28;;;;;;;7.60;3.92;;;20.40;94.20;;;;;;4155890;28;20033;-68
2022/05/12 09:50:28;;;;;;;;;;;20.30;93.30;;;;;;4156107;28;20026;-68
2022/05/12 09:52:37;;;;;;;6.50;3.20;;;20.30;92.20;;;;;;4159037;28;20384;-68
2022/05/12 09:54:38;;;;;;;8.52;3.72;;;20.40;93.40;;;;;;4158830;28;20034;-68
2022/05/12 09:56:40;;;;;;;5.90;3.50;;;20.50;92.30;;;;;;4157469;28;20101;-68
2022/05/12 09:58:48;;;;;;;5.80;3.00;;;20.50;92.70;;;;;;4155991;28;20033;-68
2022/05/12 10:01:03;;;;;;;5.18;2.97;;;20.60;91.40;;;;;;4158628;28;20041;-69
2022/05/12 10:08:14;;;;;;;4.47;2.42;;;20.70;90.50;;;;;;4156271;28;20080;-69
2022/05/12 10:10:21;;;;;;;4.82;2.85;;;20.80;91.90;;;;;;4153462;28;20033;-68
2022/05/12 10:12:26;;;;;;;6.95;2.80;;;20.90;91.10;;;;;;4157056;28;20662;-69
2022/05/12 10:14:29;;;;;;;3.78;2.17;;;21.00;91.40;;;;;;4156635;28;20581;-68
2022/05/12 10:16:31;;;;;;;5.10;3.10;;;21.20;90.00;;;;;;4166612;28;20074;-68
2022/05/12 10:18:42;;;;;;;6.85;3.35;;;21.30;90.00;;;;;;4156154;28;20054;-69
2022/05/12 10:20:46;;;;;;;5.68;2.90;;;21.30;90.10;;;;;;4155931;28;20511;-68
2022/05/12 10:22:59;;;;;;;4.70;2.83;;;21.30;90.70;;;;;;4156553;28;20066;-71
2022/05/12 10:25:22;;;;;;;4.47;2.10;;;21.50;90.50;;;;;;4156829;28;20052;-68
2022/05/12 10:27:37;;;;;;;6.05;2.20;;;21.50;87.80;;;;;;4155768;28;20401;-69
2022/05/12 10:30:17;;;;;;;4.65;1.60;;;21.60;81.30;;;;;;4157796;28;20030;-68
2022/05/12 10:32:50;;;;;;;5.13;2.40;;;21.50;81.90;;;;;;4156543;28;20049;-69
2022/05/12 10:35:05;;;;;;;4.95;3.00;;;21.50;81.90;;;;;;4156703;28;20423;-69
2022/05/12 10:37:18;;;;;;;5.68;2.60;;;21.40;80.70;;;;;;4152576;28;20033;-69
2022/05/12 10:39:49;;;;;;;5.43;2.90;;;21.40;82.90;;;;;;4155576;28;20045;-69
2022/05/12 10:42:04;;;;;;;4.20;2.10;;;21.30;80.10;;;;;;4151101;28;20524;-70
2022/05/12 10:44:36;;;;;;;6.78;2.67;;;21.40;85.50;;;;;;4155894;28;20042;-69
2022/05/12 10:47:01;;;;;;;3.67;2.42;;;21.50;86.90;;;;;;4156806;28;20040;-69
2022/05/12 10:49:40;;;;;;;6.32;2.65;;;21.60;84.60;;;;;;4156768;28;20037;-68
2022/05/12 10:52:08;;;;;;;5.22;2.83;;;21.60;83.30;;;;;;4153665;28;20534;-68
2022/05/12 10:54:52;;;;;;;5.05;2.63;;;21.50;80.20;;;;;;4157083;28;20079;-68
2022/05/12 10:56:58;;;;;;;5.78;2.60;;;21.60;83.00;;;;;;4126956;28;20033;-69
2022/05/12 10:59:33;;;;;;;4.40;2.50;;;21.60;80.90;;;;;;4157058;28;20104;-69
2022/05/12 11:01:39;;;;;;;8.48;2.47;;;21.60;83.00;;;;;;4156198;28;20108;-69